Time;durP1;ratioP1;P1;durP2;ratioP2;P2;SDS_P1;SDS_P2;PMS_P1;PMS_P2;Temp;Humidity;BMP_temperature;BMP_pressure;BME280_temperature;BME280_humidity;BME280_pressure;Samples;Min_cycle;Max_cycle;Signal;HPM_P1;HPM_P2
2022/05/13 00:02:07;;;;;;;50.90;48.00;;;;;;;13.98;100.00;101899.69;2009527;71;32935;-71
2022/05/13 00:07:52;;;;;;;52.57;49.50;;;;;;;13.93;100.00;101902.48;2004546;71;32888;-74
2022/05/13 00:13:37;;;;;;;55.93;52.63;;;;;;;13.97;100.00;101888.23;2005930;71;32970;-79
2022/05/13 00:19:22;;;;;;;57.87;54.57;;;;;;;13.86;100.00;101894.37;2002627;71;32905;-71
2022/05/13 00:25:08;;;;;;;60.27;56.87;;;;;;;13.71;100.00;101895.81;2014909;71;32814;-73
2022/05/13 00:30:52;;;;;;;60.27;57.07;;;;;;;13.72;100.00;101895.25;2002210;71;32821;-78
2022/05/13 00:36:39;;;;;;;62.70;59.17;;;;;;;13.56;100.00;101895.25;2000929;71;32851;-69
2022/05/13 00:42:24;;;;;;;65.13;61.70;;;;;;;13.61;100.00;101881.29;2009626;71;33371;-76
2022/05/13 00:48:10;;;;;;;63.17;59.73;;;;;;;13.58;100.00;101883.81;2008536;71;33243;-75
2022/05/13 00:53:57;;;;;;;64.60;61.07;;;;;;;13.54;100.00;101879.91;2000708;71;32900;-69
2022/05/13 00:59:44;;;;;;;61.90;58.43;;;;;;;13.41;100.00;101882.70;2005223;70;33294;-79
2022/05/13 01:05:29;;;;;;;66.07;62.17;;;;;;;13.34;100.00;101883.55;2009580;71;32796;-71
2022/05/13 01:11:18;;;;;;;61.80;58.50;;;;;;;13.31;100.00;101887.43;1995495;71;32808;-76
2022/05/13 01:23:30;;;;;;;63.37;59.97;;;;;;;13.18;100.00;101893.84;2017105;70;33363;-75
2022/05/13 01:29:16;;;;;;;65.97;62.27;;;;;;;13.06;100.00;101892.40;2011978;71;33227;-69
2022/05/13 01:35:00;;;;;;;65.80;62.20;;;;;;;12.97;100.00;101901.87;1998913;71;32885;-70
2022/05/13 01:40:44;;;;;;;65.83;62.23;;;;;;;12.96;100.00;101903.00;2000905;71;33302;-76
2022/05/13 01:46:29;;;;;;;68.87;65.17;;;;;;;12.94;100.00;101896.00;2006345;71;33249;-71
2022/05/13 01:52:13;;;;;;;67.73;64.10;;;;;;;12.81;100.00;101894.58;1999347;70;32755;-78
2022/05/13 01:57:58;;;;;;;70.07;66.17;;;;;;;12.85;100.00;101888.73;1974584;71;33032;-75
2022/05/13 02:03:47;;;;;;;69.20;65.23;;;;;;;12.84;100.00;101884.27;1998674;71;33331;-71
2022/05/13 02:09:34;;;;;;;69.57;65.70;;;;;;;12.79;100.00;101885.67;2006307;71;33344;-71
2022/05/13 02:15:22;;;;;;;69.13;65.33;;;;;;;12.69;100.00;101874.48;2011587;71;32977;-70
2022/05/13 02:21:07;;;;;;;69.67;65.77;;;;;;;12.72;100.00;101883.12;2011304;71;32821;-70
2022/05/13 02:26:51;;;;;;;69.97;66.17;;;;;;;12.63;100.00;101887.55;2004668;71;32781;-76
2022/05/13 02:32:36;;;;;;;70.67;66.73;;;;;;;12.69;100.00;101887.87;1994867;70;32835;-77
2022/05/13 02:38:23;;;;;;;71.80;67.77;;;;;;;12.62;100.00;101876.11;2002215;71;32847;-79
2022/05/13 02:44:07;;;;;;;71.97;67.70;;;;;;;12.51;100.00;101877.75;2002321;71;32920;-70
2022/05/13 02:50:17;;;;;;;71.20;67.00;;;;;;;12.43;100.00;101882.47;2016867;71;32839;-78
2022/05/13 02:55:42;;;;;;;74.50;70.20;;;;;;;12.35;100.00;101892.20;2018470;71;32902;-70
2022/05/13 03:01:27;;;;;;;72.63;68.23;;;;;;;12.39;100.00;101888.30;2016870;71;33000;-70
2022/05/13 03:07:11;;;;;;;74.70;70.00;;;;;;;12.43;100.00;101889.44;2007767;71;32900;-70
2022/05/13 03:12:55;;;;;;;74.03;69.47;;;;;;;12.37;100.00;101885.78;2012233;71;33286;-77
2022/05/13 03:18:40;;;;;;;69.87;65.47;;;;;;;12.37;100.00;101887.17;1995511;71;32845;-76
2022/05/13 03:24:24;;;;;;;72.23;67.73;;;;;;;12.35;100.00;101891.35;2010127;71;33276;-77
2022/05/13 03:30:00;;;;;;;72.53;67.93;;;;;;;12.27;100.00;101887.98;1917542;70;33493;-69
2022/05/13 03:32:31;;;;;;;73.50;68.80;;;;;;;12.21;100.00;101890.45;1870660;76;26287;-78
2022/05/13 03:35:01;;;;;;;70.77;66.17;;;;;;;12.24;100.00;101887.11;1857308;77;26212;-70
2022/05/13 03:37:31;;;;;;;72.17;67.70;;;;;;;12.19;100.00;101883.48;1857191;77;26211;-79
2022/05/13 03:40:02;;;;;;;73.93;69.30;;;;;;;12.11;100.00;101888.16;1857282;77;26211;-70
2022/05/13 03:42:33;;;;;;;75.90;71.20;;;;;;;12.13;100.00;101889.58;1857321;77;26285;-78
2022/05/13 03:45:04;;;;;;;73.20;68.50;;;;;;;12.12;100.00;101891.23;1857268;77;26300;-77
2022/05/13 03:47:34;;;;;;;72.63;67.70;;;;;;;12.11;100.00;101890.39;1857225;77;26270;-69
2022/05/13 03:50:05;;;;;;;71.30;66.50;;;;;;;11.98;100.00;101884.48;1857302;77;26216;-69
2022/05/13 03:52:36;;;;;;;73.17;68.37;;;;;;;12.09;100.00;101890.39;1857372;77;26222;-77
2022/05/13 03:55:08;;;;;;;74.07;69.17;;;;;;;12.03;100.00;101899.25;1857532;77;26738;-69
2022/05/13 03:57:39;;;;;;;72.40;67.43;;;;;;;12.01;100.00;101896.47;1857305;77;26776;-77
2022/05/13 04:03:25;;;;;;;73.27;68.37;;;;;;;12.08;100.00;101892.33;2009712;71;32901;-76
2022/05/13 04:09:10;;;;;;;73.83;68.77;;;;;;;12.04;100.00;101890.34;2002712;71;33437;-73
2022/05/13 04:20:57;;;;;;;71.20;66.30;;;;;;;11.99;100.00;101889.77;2011762;71;33324;-77
2022/05/13 04:26:42;;;;;;;74.93;70.00;;;;;;;11.96;100.00;101886.14;2018454;70;32833;-70
2022/05/13 04:32:26;;;;;;;71.07;65.93;;;;;;;11.96;100.00;101890.86;2006214;71;32847;-70
2022/05/13 04:38:10;;;;;;;72.27;67.37;;;;;;;12.02;100.00;101899.55;2006275;71;32759;-79
2022/05/13 04:43:55;;;;;;;72.10;67.40;;;;;;;12.02;100.00;101903.17;2015212;70;32893;-79
2022/05/13 04:49:40;;;;;;;71.10;66.13;;;;;;;12.13;100.00;101902.66;2017178;71;32999;-72
2022/05/13 04:55:25;;;;;;;71.50;66.53;;;;;;;12.20;100.00;101901.85;1991693;71;32837;-76
2022/05/13 05:01:11;;;;;;;69.43;64.80;;;;;;;12.29;100.00;101905.25;1995519;71;32840;-76
2022/05/13 05:06:55;;;;;;;69.13;64.20;;;;;;;12.54;100.00;101901.73;2016940;71;32964;-74
2022/05/13 05:12:41;;;;;;;69.73;65.13;;;;;;;12.76;100.00;101904.32;2008298;71;32775;-71
2022/05/13 05:18:28;;;;;;;68.03;63.53;;;;;;;12.89;100.00;101903.80;2000522;71;32862;-76
2022/05/13 05:24:14;;;;;;;67.87;63.37;;;;;;;12.93;100.00;101909.11;2015274;71;32816;-75
2022/05/13 05:29:59;;;;;;;68.07;63.40;;;;;;;12.98;100.00;101921.67;2013315;71;33482;-78
2022/05/13 05:35:43;;;;;;;70.07;65.30;;;;;;;12.95;100.00;101927.81;2015488;71;33274;-75
2022/05/13 05:41:27;;;;;;;71.33;66.70;;;;;;;13.04;100.00;101925.33;2006070;71;33306;-75
2022/05/13 05:47:11;;;;;;;67.93;63.40;;;;;;;13.01;100.00;101925.85;2009753;71;32883;-79
2022/05/13 05:52:55;;;;;;;70.43;65.83;;;;;;;13.03;100.00;101926.43;2008338;71;32942;-76
2022/05/13 05:58:42;;;;;;;67.30;62.50;;;;;;;13.07;100.00;101937.32;1999110;71;33454;-69
2022/05/13 06:04:26;;;;;;;69.70;65.13;;;;;;;13.02;100.00;101946.52;1995131;71;32830;-69
2022/05/13 06:10:12;;;;;;;71.23;65.97;;;;;;;13.17;100.00;101965.28;2016633;71;32836;-76
2022/05/13 06:15:56;;;;;;;75.80;70.63;;;;;;;13.19;100.00;101958.86;2000777;71;33309;-68
2022/05/13 06:21:40;;;;;;;70.80;65.80;;;;;;;13.20;100.00;101969.75;2014795;71;32834;-74
2022/05/13 06:27:24;;;;;;;73.00;68.20;;;;;;;13.24;100.00;101968.63;1994842;71;32845;-69
2022/05/13 06:33:09;;;;;;;69.90;65.30;;;;;;;13.38;100.00;101973.13;2009973;71;32770;-69
2022/05/13 06:38:53;;;;;;;72.23;67.27;;;;;;;13.47;100.00;101974.27;2006269;71;33296;-69
2022/05/13 06:44:37;;;;;;;71.27;66.40;;;;;;;13.55;100.00;101980.69;1998583;71;32917;-68
2022/05/13 06:50:23;;;;;;;67.83;63.53;;;;;;;13.63;100.00;101980.98;2005865;71;33293;-76
2022/05/13 06:56:08;;;;;;;72.37;67.70;;;;;;;13.71;100.00;101985.16;1989365;71;33266;-78
2022/05/13 07:01:52;;;;;;;69.37;65.07;;;;;;;13.81;100.00;101986.58;2008420;70;33226;-77
2022/05/13 07:07:37;;;;;;;71.17;66.67;;;;;;;14.01;100.00;101987.11;2013640;71;32768;-68
2022/05/13 07:13:22;;;;;;;71.20;66.30;;;;;;;13.93;100.00;101987.68;1998378;71;32890;-77
2022/05/13 07:19:07;;;;;;;70.80;66.33;;;;;;;14.11;100.00;101997.73;2016840;71;32977;-74
2022/05/13 07:24:51;;;;;;;72.70;68.03;;;;;;;14.18;100.00;102003.58;2016522;71;32922;-74
2022/05/13 07:30:36;;;;;;;69.87;65.33;;;;;;;14.18;100.00;102010.56;2010200;71;33219;-71
2022/05/13 07:36:21;;;;;;;70.53;65.67;;;;;;;14.15;100.00;102014.77;2006210;71;32774;-79
2022/05/13 07:42:08;;;;;;;69.70;65.20;;;;;;;14.03;100.00;102019.23;2011513;71;32839;-73
2022/05/13 07:47:54;;;;;;;69.23;64.50;;;;;;;13.96;100.00;102034.60;2004629;71;33063;-74
2022/05/13 07:53:40;;;;;;;69.60;65.10;;;;;;;13.91;100.00;102045.22;2000109;71;32949;-71
2022/05/13 07:59:26;;;;;;;69.50;64.27;;;;;;;13.92;100.00;102048.84;2011400;71;32819;-77
2022/05/13 08:05:11;;;;;;;67.97;63.60;;;;;;;13.89;100.00;102048.86;2016574;71;32830;-79
2022/05/13 08:10:58;;;;;;;65.10;60.40;;;;;;;13.86;100.00;102051.38;2005768;71;32874;-78
2022/05/13 08:16:44;;;;;;;69.60;64.73;;;;;;;14.01;100.00;102052.22;1991632;71;32800;-78
2022/05/13 08:22:29;;;;;;;68.10;63.57;;;;;;;13.99;100.00;102055.02;2015405;71;32821;-74
2022/05/13 08:28:14;;;;;;;66.20;61.80;;;;;;;14.20;100.00;102053.90;1995316;71;32936;-76
2022/05/13 08:33:58;;;;;;;65.03;60.50;;;;;;;14.36;100.00;102047.20;2015737;71;33373;-73
2022/05/13 08:39:43;;;;;;;63.53;59.37;;;;;;;14.53;100.00;102046.89;2005981;71;33328;-72
2022/05/13 08:45:34;;;;;;;61.83;57.93;;;;;;;14.85;100.00;102039.52;2012375;71;32738;-72
2022/05/13 08:51:24;;;;;;;61.93;58.27;;;;;;;15.25;100.00;102040.76;2006257;71;32771;-79
2022/05/13 08:53:58;;;;;;;65.17;60.80;;;;;;;14.99;100.00;102045.62;1958859;72;26792;-78
2022/05/13 08:59:47;;;;;;;59.67;55.93;;;;;;;15.28;100.00;102045.77;2000530;71;32809;-75
2022/05/13 09:05:38;;;;;;;58.33;54.77;;;;;;;15.48;100.00;102044.28;2014930;71;33371;-72
2022/05/13 09:11:26;;;;;;;55.87;52.30;;;;;;;15.49;100.00;102045.94;2013432;71;32905;-70
2022/05/13 09:14:04;;;;;;;53.80;50.20;;;;;;;15.35;100.00;102045.48;1979882;72;26188;-70
2022/05/13 09:20:01;;;;;;;48.57;45.40;;;;;;;15.68;100.00;102043.34;2018513;71;32944;-70
2022/05/13 09:26:03;;;;;;;48.50;45.43;;;;;;;15.55;100.00;102036.98;2009410;71;33506;-70
2022/05/13 09:31:51;;;;;;;46.40;43.30;;;;;;;15.63;100.00;102036.92;1997191;71;32780;-77
2022/05/13 09:37:48;;;;;;;51.93;48.83;;;;;;;15.73;100.00;102039.66;2000858;71;32890;-79
2022/05/13 09:43:40;;;;;;;52.07;49.10;;;;;;;15.73;100.00;102043.87;2011626;71;33590;-78
2022/05/13 09:49:33;;;;;;;49.03;46.33;;;;;;;15.92;100.00;102047.07;2005795;71;33301;-71
2022/05/13 09:55:29;;;;;;;45.93;43.17;;;;;;;15.71;100.00;102041.34;2011366;71;32846;-70
2022/05/13 10:01:19;;;;;;;44.67;42.17;;;;;;;16.00;100.00;102035.83;2013314;71;33268;-70
2022/05/13 10:07:11;;;;;;;44.70;41.97;;;;;;;16.21;100.00;102044.89;2015492;71;32911;-81
2022/05/13 10:19:03;;;;;;;41.33;38.87;;;;;;;16.30;100.00;102034.13;2013428;71;33386;-71
2022/05/13 10:21:38;;;;;;;40.93;38.63;;;;;;;16.50;100.00;102035.91;1985084;72;26213;-78
2022/05/13 10:24:18;;;;;;;38.77;36.33;;;;;;;16.62;100.00;102038.33;1959198;72;26311;-70
2022/05/13 10:26:50;;;;;;;38.33;36.07;;;;;;;16.83;100.00;102030.80;1982194;72;26203;-69
2022/05/13 10:29:24;;;;;;;36.67;34.40;;;;;;;16.86;100.00;102032.16;1984619;72;26323;-79
2022/05/13 10:35:13;;;;;;;31.83;29.87;;;;;;;16.99;100.00;102029.19;2016888;71;30937;-70
2022/05/13 10:41:20;;;;;;;36.23;34.17;;;;;;;17.49;100.00;102014.48;2007558;71;30879;-70
2022/05/13 10:47:11;;;;;;;28.87;26.87;;;;;;;17.53;100.00;102014.70;2015013;71;30882;-77
2022/05/13 10:52:59;;;;;;;26.73;25.03;;;;;;;17.44;100.00;102010.91;2016809;71;30979;-78
2022/05/13 10:58:52;;;;;;;27.97;26.30;;;;;;;17.77;100.00;101999.18;1998877;71;30886;-72
2022/05/13 11:04:45;;;;;;;24.30;22.53;;;;;;;17.90;100.00;101992.22;2014803;71;30945;-72
2022/05/13 11:10:35;;;;;;;22.27;20.97;;;;;;;17.70;100.00;101996.77;2000604;71;30955;-70
2022/05/13 11:16:26;;;;;;;21.97;20.57;;;;;;;17.92;100.00;101989.11;2018679;71;33343;-78
2022/05/13 11:19:01;;;;;;;21.33;20.10;;;;;;;17.99;100.00;101993.19;1972048;72;24614;-79
2022/05/13 11:27:57;;;;;;;20.80;19.27;;;;;;;18.41;100.00;101992.14;1977851;72;24278;-76
2022/05/13 11:30:32;;;;;;;19.10;17.80;;;;;;;17.97;100.00;101990.44;1976567;72;24174;-76
2022/05/13 11:36:26;;;;;;;19.40;18.10;;;;;;;18.07;100.00;101989.67;2011214;71;30899;-70
2022/05/13 11:46:20;;;;;;;18.33;17.03;;;;;;;18.82;100.00;101987.99;1985830;72;24295;-70
2022/05/13 11:52:28;;;;;;;18.17;17.03;;;;;;;18.66;100.00;101979.57;2016609;71;30922;-70
2022/05/13 11:58:51;;;;;;;18.27;17.10;;;;;;;18.60;100.00;101978.02;1995232;71;31465;-71
2022/05/13 12:05:14;;;;;;;16.73;15.73;;;;;;;19.17;100.00;101974.29;1997130;71;30894;-70
2022/05/13 12:11:46;;;;;;;15.83;14.73;;;;;;;19.05;100.00;101964.38;2004330;71;31482;-79
2022/05/13 12:17:41;;;;;;;15.50;14.47;;;;;;;18.91;100.00;101960.74;2000868;71;30868;-68
2022/05/13 12:20:15;;;;;;;15.63;14.47;;;;;;;18.78;100.00;101962.19;1966219;72;24151;-77
2022/05/13 12:22:52;;;;;;;14.60;13.40;;;;;;;18.91;100.00;101969.19;1964416;72;24678;-78
2022/05/13 12:25:58;;;;;;;14.77;13.67;;;;;;;18.91;100.00;101963.55;1976476;72;24218;-78
2022/05/13 12:32:12;;;;;;;14.33;13.33;;;;;;;19.17;100.00;101956.78;2014789;71;30912;-80
2022/05/13 12:38:13;;;;;;;13.57;12.60;;;;;;;19.51;100.00;101957.74;2002596;71;30831;-71
2022/05/13 12:44:13;;;;;;;13.60;12.50;;;;;;;19.49;100.00;101960.87;2002470;71;30993;-75
2022/05/13 12:50:22;;;;;;;14.00;12.80;;;;;;;19.29;100.00;101959.08;2007952;70;30911;-70
2022/05/13 12:56:12;;;;;;;13.60;12.50;;;;;;;19.34;100.00;101947.09;2009320;71;31021;-79
2022/05/13 13:02:00;;;;;;;14.07;12.80;;;;;;;19.31;100.00;101951.96;2012961;70;33349;-77
2022/05/13 13:04:36;;;;;;;13.97;12.80;;;;;;;19.39;100.00;101946.14;1984410;72;24257;-79
2022/05/13 13:10:29;;;;;;;13.67;12.40;;;;;;;19.66;100.00;101938.20;2011878;71;30832;-70
2022/05/13 13:16:22;;;;;;;13.00;12.20;;;;;;;19.74;100.00;101922.75;2000233;71;30995;-69
2022/05/13 13:22:26;;;;;;;13.93;12.93;;;;;;;19.53;100.00;101927.23;1997115;71;31282;-80
2022/05/13 13:28:14;;;;;;;13.97;12.77;;;;;;;19.68;100.00;101924.63;2013865;71;30929;-79
2022/05/13 13:33:59;;;;;;;12.83;11.77;;;;;;;19.88;100.00;101908.02;2016670;71;30973;-79
2022/05/13 13:39:45;;;;;;;12.47;11.47;;;;;;;19.88;100.00;101911.41;2004079;71;33355;-69
2022/05/13 13:45:31;;;;;;;12.70;11.70;;;;;;;19.87;100.00;101920.44;1995290;71;30822;-80
2022/05/13 13:51:23;;;;;;;13.17;12.00;;;;;;;20.12;100.00;101911.03;2015082;71;31001;-70
2022/05/13 13:57:22;;;;;;;12.60;11.53;;;;;;;20.10;100.00;101904.89;1970650;72;31066;-72
2022/05/13 14:03:14;;;;;;;12.83;11.80;;;;;;;20.17;100.00;101895.38;2017103;71;30994;-73
2022/05/13 14:09:00;;;;;;;13.10;12.07;;;;;;;20.34;100.00;101898.31;2000523;71;31435;-74
2022/05/13 14:14:48;;;;;;;13.00;11.93;;;;;;;20.56;100.00;101891.75;2012953;71;31021;-81
2022/05/13 14:20:36;;;;;;;16.87;15.77;;;;;;;20.48;100.00;101889.73;2015043;71;31404;-72
2022/05/13 14:26:28;;;;;;;16.47;15.37;;;;;;;20.47;100.00;101899.35;1995458;71;30856;-80
2022/05/13 14:32:18;;;;;;;12.87;11.87;;;;;;;20.50;100.00;101903.77;2004868;70;30974;-80
2022/05/13 14:39:48;;;;;;;12.53;11.60;;;;;;;20.52;100.00;101882.27;2007850;71;30944;-71
2022/05/13 14:44:05;;;;;;;12.23;11.33;;;;;;;20.69;100.00;101893.05;2015383;71;30904;-76
2022/05/13 14:49:54;;;;;;;11.53;10.73;;;;;;;20.59;100.00;101887.69;1997057;71;30822;-73
2022/05/13 14:55:44;;;;;;;12.50;11.30;;;;;;;20.53;100.00;101893.83;2001200;71;30882;-77
2022/05/13 15:01:38;;;;;;;12.77;11.70;;;;;;;20.61;100.00;101888.78;2010254;71;30928;-79
2022/05/13 15:07:39;;;;;;;11.97;11.07;;;;;;;20.31;100.00;101890.50;2013444;71;30887;-74
2022/05/13 15:13:26;;;;;;;15.30;13.83;;;;;;;20.46;100.00;101878.76;2000345;71;30911;-80
2022/05/13 15:19:24;;;;;;;13.37;12.40;;;;;;;20.39;100.00;101897.59;2006570;71;30845;-81
2022/05/13 15:25:00;;;;;;;12.57;11.67;;;;;;;20.37;100.00;101892.00;2015438;71;33336;-76
2022/05/13 15:30:45;;;;;;;14.57;12.57;;;;;;;20.47;100.00;101887.48;2017250;71;30912;-75
2022/05/13 15:36:32;;;;;;;15.37;13.10;;;;;;;20.53;100.00;101888.18;2015350;71;30927;-76
2022/05/13 15:42:17;;;;;;;14.03;12.73;;;;;;;20.53;100.00;101885.36;2011748;71;31385;-72
2022/05/13 15:48:04;;;;;;;13.30;12.10;;;;;;;20.56;100.00;101891.75;2017059;71;30923;-72
2022/05/13 15:53:48;;;;;;;12.57;11.67;;;;;;;20.55;100.00;101898.55;2011230;71;30897;-72
2022/05/13 15:59:36;;;;;;;13.07;11.83;;;;;;;20.52;100.00;101885.93;1997130;71;30842;-77
2022/05/13 16:05:25;;;;;;;12.67;11.60;;;;;;;20.55;100.00;101885.84;2013512;71;30912;-75
2022/05/13 16:11:13;;;;;;;12.20;11.17;;;;;;;20.64;100.00;101890.36;2011432;71;30966;-72
2022/05/13 16:17:02;;;;;;;12.10;11.37;;;;;;;20.59;100.00;101886.27;1998725;71;30976;-79
2022/05/13 16:22:50;;;;;;;12.63;11.80;;;;;;;20.58;100.00;101875.33;2013320;71;31408;-77
2022/05/13 16:28:35;;;;;;;12.60;11.53;;;;;;;20.56;100.00;101887.52;2010240;71;30848;-77
2022/05/13 16:34:19;;;;;;;12.97;12.07;;;;;;;20.55;100.00;101891.48;2015120;70;31374;-78
2022/05/13 16:40:03;;;;;;;12.70;11.73;;;;;;;20.59;100.00;101890.52;1997224;71;30860;-76
2022/05/13 16:45:48;;;;;;;12.67;11.77;;;;;;;20.59;100.00;101893.91;1997361;71;30824;-75
2022/05/13 16:51:33;;;;;;;13.00;11.90;;;;;;;20.65;100.00;101899.09;2011466;71;30922;-72
2022/05/13 16:57:17;;;;;;;11.27;10.33;;;;;;;20.67;100.00;101896.75;1949925;72;30897;-78
2022/05/13 17:03:01;;;;;;;12.33;11.40;;;;;;;20.56;100.00;101895.41;1945521;70;31237;-71
2022/05/13 17:20:52;;;;;;;13.20;11.50;;;;;;;20.63;100.00;101900.56;2017028;70;31036;-70
2022/05/13 17:26:37;;;;;;;12.23;11.37;;;;;;;20.60;100.00;101906.30;2014966;71;30933;-71
2022/05/13 17:32:23;;;;;;;12.30;11.30;;;;;;;20.59;100.00;101906.61;2014969;71;30955;-72
2022/05/13 17:38:08;;;;;;;11.60;10.67;;;;;;;20.50;100.00;101908.00;2011525;71;30979;-72
2022/05/13 17:43:56;;;;;;;11.50;10.67;;;;;;;20.48;100.00;101918.80;2011421;71;31026;-69
2022/05/13 17:49:41;;;;;;;11.87;10.93;;;;;;;20.44;100.00;101921.44;1994993;71;30886;-74
2022/05/13 17:55:25;;;;;;;12.97;11.90;;;;;;;20.41;100.00;101924.06;2014848;71;30945;-72
2022/05/13 18:01:10;;;;;;;12.63;11.83;;;;;;;20.21;100.00;101919.80;2006092;71;30952;-73
2022/05/13 18:06:57;;;;;;;13.07;12.07;;;;;;;20.32;100.00;101925.44;1995398;70;30894;-72
2022/05/13 18:12:41;;;;;;;12.83;12.03;;;;;;;20.35;100.00;101925.38;2009932;71;32740;-75
2022/05/13 18:18:32;;;;;;;12.97;11.93;;;;;;;20.41;100.00;101929.13;1998630;71;30948;-70
2022/05/13 18:24:18;;;;;;;13.87;12.53;;;;;;;20.45;100.00;101930.75;2011532;71;33354;-73
2022/05/13 18:30:02;;;;;;;12.80;11.83;;;;;;;20.43;100.00;101934.46;2003941;71;30960;-71
2022/05/13 18:35:46;;;;;;;12.53;11.50;;;;;;;20.28;100.00;101930.03;2016991;71;31423;-71
2022/05/13 18:47:33;;;;;;;12.47;11.47;;;;;;;19.07;100.00;101950.00;2016824;71;31007;-71
2022/05/13 18:53:17;;;;;;;12.67;11.77;;;;;;;18.74;100.00;101949.28;2005948;71;31006;-72
2022/05/13 18:59:01;;;;;;;12.80;11.90;;;;;;;18.55;100.00;101957.02;2006204;71;30838;-73
2022/05/13 19:04:46;;;;;;;14.47;13.27;;;;;;;18.14;100.00;101921.79;2018819;70;30954;-76
2022/05/13 19:10:32;;;;;;;12.73;11.63;;;;;;;18.25;100.00;101977.27;2016712;71;31016;-71
2022/05/13 19:16:17;;;;;;;12.90;11.87;;;;;;;18.14;100.00;101988.69;2013463;71;31387;-74
2022/05/13 19:22:02;;;;;;;13.70;12.47;;;;;;;18.03;100.00;101999.86;2013695;71;31335;-74
2022/05/13 19:27:47;;;;;;;14.97;13.67;;;;;;;17.86;100.00;102005.78;1995072;71;31513;-72
2022/05/13 19:33:31;;;;;;;15.40;13.87;;;;;;;17.65;100.00;102001.06;1996515;71;30886;-69
2022/05/13 19:39:17;;;;;;;15.97;14.50;;;;;;;17.48;100.00;102009.16;2004264;71;31408;-73
2022/05/13 19:45:02;;;;;;;14.33;13.23;;;;;;;17.35;100.00;102014.97;2015244;71;30996;-72
2022/05/13 19:50:48;;;;;;;14.50;13.30;;;;;;;17.21;100.00;102014.87;2004004;71;31417;-71
2022/05/13 19:56:33;;;;;;;14.73;13.53;;;;;;;17.13;100.00;102025.94;2005710;71;31012;-72
2022/05/13 20:02:18;;;;;;;15.10;13.83;;;;;;;16.95;100.00;102038.78;2006123;71;33369;-71
2022/05/13 20:14:08;;;;;;;15.80;14.63;;;;;;;16.56;100.00;102061.95;2009625;71;30925;-72
2022/05/13 20:25:54;;;;;;;17.23;15.40;;;;;;;16.44;100.00;102075.51;2009817;71;31449;-74
2022/05/13 20:31:46;;;;;;;17.07;15.80;;;;;;;16.30;100.00;102085.19;2010139;71;30887;-82
2022/05/13 20:37:31;;;;;;;19.40;17.87;;;;;;;16.09;100.00;102075.28;2015000;71;32896;-76
2022/05/13 20:43:15;;;;;;;19.80;18.23;;;;;;;15.89;100.00;102086.89;2002379;71;31090;-76
2022/05/13 20:49:01;;;;;;;19.80;18.20;;;;;;;15.85;100.00;102091.97;1995249;71;33015;-80
2022/05/13 20:54:47;;;;;;;20.30;18.80;;;;;;;15.70;100.00;102098.49;2006241;71;33437;-73
2022/05/13 21:00:33;;;;;;;22.00;20.10;;;;;;;15.46;100.00;102103.09;2005701;71;33362;-78
2022/05/13 21:06:17;;;;;;;22.07;20.27;;;;;;;15.40;100.00;102111.25;2009476;70;32829;-79
2022/05/13 21:12:03;;;;;;;23.27;21.23;;;;;;;15.26;100.00;102116.62;2003938;70;33375;-75
2022/05/13 21:17:47;;;;;;;23.87;22.07;;;;;;;15.08;100.00;102122.00;1991541;71;32874;-77
2022/05/13 21:20:21;;;;;;;25.67;23.67;;;;;;;14.88;100.00;102118.14;1974624;72;26295;-78
2022/05/13 21:26:06;;;;;;;27.97;25.77;;;;;;;14.70;100.00;102115.09;2016671;71;32837;-78
2022/05/13 21:37:53;;;;;;;23.70;21.90;;;;;;;14.75;100.00;102113.69;1997196;71;32947;-78
2022/05/13 21:43:38;;;;;;;23.93;22.13;;;;;;;14.51;100.00;102115.67;2010217;71;33176;-78
2022/05/13 21:49:27;;;;;;;23.37;21.37;;;;;;;14.43;100.00;102127.42;2016556;71;32839;-78
2022/05/13 21:55:18;;;;;;;24.13;22.53;;;;;;;14.36;100.00;102113.45;2001621;71;32801;-77
2022/05/13 22:01:08;;;;;;;23.93;22.23;;;;;;;14.35;100.00;102122.91;1998674;71;32912;-78
2022/05/13 22:06:53;;;;;;;25.70;23.40;;;;;;;14.14;100.00;102138.28;2016844;71;32950;-78
2022/05/13 22:12:38;;;;;;;26.80;24.63;;;;;;;14.11;100.00;102132.42;1998769;71;32862;-79
2022/05/13 22:18:24;;;;;;;27.00;24.90;;;;;;;14.03;100.00;102132.38;2011970;71;33286;-79
2022/05/13 22:24:08;;;;;;;29.83;27.50;;;;;;;13.87;100.00;102127.05;2015220;70;32863;-74
2022/05/13 22:29:53;;;;;;;30.87;28.50;;;;;;;13.88;100.00;102116.16;2018620;71;33274;-78
2022/05/13 22:35:37;;;;;;;32.57;29.97;;;;;;;13.90;100.00;102113.95;2013352;71;32876;-78
2022/05/13 22:41:22;;;;;;;34.93;32.23;;;;;;;13.82;100.00;102126.48;2018488;71;32874;-78
2022/05/13 22:47:06;;;;;;;41.57;38.87;;;;;;;13.35;100.00;102121.61;2005655;71;32924;-74
2022/05/13 22:52:51;;;;;;;46.33;43.13;;;;;;;13.51;100.00;102111.63;2012066;71;32800;-75
2022/05/13 22:58:37;;;;;;;48.00;45.00;;;;;;;13.42;100.00;102124.42;1999074;70;32770;-79
2022/05/13 23:04:21;;;;;;;52.27;49.07;;;;;;;13.19;100.00;102131.30;2006524;71;33289;-78
2022/05/13 23:16:10;;;;;;;64.20;60.20;;;;;;;12.59;100.00;102137.30;2013418;71;32876;-76
2022/05/13 23:21:55;;;;;;;69.10;64.33;;;;;;;12.42;100.00;102138.55;2000468;71;33463;-79
2022/05/13 23:27:39;;;;;;;72.60;67.80;;;;;;;12.35;100.00;102140.17;2009386;70;32955;-80
2022/05/13 23:33:25;;;;;;;72.33;67.03;;;;;;;12.33;100.00;102138.20;2002649;71;32827;-76
2022/05/13 23:39:10;;;;;;;73.97;68.67;;;;;;;12.54;100.00;102136.41;2015201;71;32831;-79
2022/05/13 23:44:55;;;;;;;74.37;69.17;;;;;;;12.32;100.00;102133.17;2008365;71;32892;-77
2022/05/13 23:50:39;;;;;;;73.83;69.03;;;;;;;12.34;100.00;102123.16;2011849;70;32828;-78
2022/05/13 23:56:29;;;;;;;76.17;70.90;;;;;;;12.20;100.00;102123.31;2008253;71;32911;-78
